Time;durP1;ratioP1;P1;durP2;ratioP2;P2;SDS_P1;SDS_P2;PMS_P1;PMS_P2;Temp;Humidity;BMP_temperature;BMP_pressure;BME280_temperature;BME280_humidity;BME280_pressure;Samples;Min_cycle;Max_cycle;Signal;HPM_P1;HPM_P2
2023/03/24 00:00:11;;;;;;;2.22;0.95;;;19.70;43.70;;;;;;2302690;55;21350;-68
2023/03/24 00:02:40;;;;;;;2.42;1.05;;;19.80;43.70;;;;;;2302905;55;21007;-69
2023/03/24 00:05:09;;;;;;;2.83;0.85;;;19.80;43.50;;;;;;2303159;55;21039;-69
2023/03/24 00:07:37;;;;;;;1.77;0.80;;;19.90;43.50;;;;;;2302473;55;21103;-68
2023/03/24 00:10:08;;;;;;;1.98;0.90;;;19.90;43.50;;;;;;2303716;55;21024;-68
2023/03/24 00:12:37;;;;;;;1.98;0.80;;;19.90;43.40;;;;;;2303544;55;21023;-70
2023/03/24 00:15:06;;;;;;;2.55;0.80;;;20.00;43.30;;;;;;2542179;54;20948;-69
2023/03/24 00:17:34;;;;;;;1.85;0.75;;;20.00;43.20;;;;;;2303265;55;20971;-69
2023/03/24 00:20:13;;;;;;;2.22;0.80;;;19.90;43.00;;;;;;2303487;55;20963;-69
2023/03/24 00:22:48;;;;;;;2.08;0.75;;;20.10;43.10;;;;;;2302882;55;20939;-68
2023/03/24 00:25:16;;;;;;;4.32;0.80;;;20.20;43.20;;;;;;2303490;55;21503;-69
2023/03/24 00:27:47;;;;;;;1.62;0.70;;;20.20;43.10;;;;;;2513884;54;21057;-68
2023/03/24 00:30:13;;;;;;;1.77;0.70;;;20.20;43.00;;;;;;2303623;55;21051;-69
2023/03/24 00:32:40;;;;;;;1.67;0.75;;;20.10;42.80;;;;;;2302878;55;21007;-69
2023/03/24 00:35:11;;;;;;;2.15;0.88;;;20.30;42.90;;;;;;2542662;54;21036;-69
2023/03/24 00:37:41;;;;;;;1.77;0.70;;;20.30;42.70;;;;;;2303513;55;21009;-68
2023/03/24 00:40:12;;;;;;;1.90;0.90;;;20.30;42.70;;;;;;2542469;54;21056;-68
2023/03/24 00:42:40;;;;;;;2.25;0.88;;;20.40;42.80;;;;;;2542485;54;21115;-71
2023/03/24 00:45:08;;;;;;;2.92;1.08;;;20.50;42.70;;;;;;2303156;54;21976;-69
2023/03/24 00:47:36;;;;;;;2.20;0.90;;;20.50;42.80;;;;;;2542145;54;21510;-69
2023/03/24 00:50:12;;;;;;;1.77;0.60;;;20.50;42.70;;;;;;2541900;54;20968;-69
2023/03/24 00:52:43;;;;;;;2.00;0.80;;;20.50;42.50;;;;;;2302889;55;20967;-68
2023/03/24 00:55:12;;;;;;;2.33;0.73;;;20.50;42.50;;;;;;2303236;55;21050;-68
2023/03/24 00:57:39;;;;;;;3.05;0.77;;;20.60;42.50;;;;;;2535634;53;20961;-71
2023/03/24 01:00:12;;;;;;;1.55;0.70;;;20.60;42.50;;;;;;2301473;55;20940;-70
2023/03/24 01:02:52;;;;;;;1.98;0.82;;;20.60;42.40;;;;;;2304916;55;21696;-69
2023/03/24 01:05:22;;;;;;;2.15;0.90;;;20.60;42.40;;;;;;2303238;55;21520;-69
2023/03/24 01:07:51;;;;;;;2.05;0.77;;;20.60;42.40;;;;;;2541478;54;21000;-69
2023/03/24 01:10:18;;;;;;;1.90;0.68;;;20.60;42.30;;;;;;2302894;55;21545;-69
2023/03/24 01:12:45;;;;;;;2.00;0.70;;;20.60;42.30;;;;;;2302402;55;20946;-68
2023/03/24 01:15:17;;;;;;;2.37;0.90;;;20.60;42.20;;;;;;2303126;55;20944;-69
2023/03/24 01:17:45;;;;;;;2.70;0.88;;;20.70;42.20;;;;;;2541841;54;20999;-70
2023/03/24 01:20:16;;;;;;;2.25;0.80;;;20.70;42.20;;;;;;2542010;54;21632;-68
2023/03/24 01:22:43;;;;;;;2.30;1.00;;;20.70;42.20;;;;;;2303229;55;20984;-69
2023/03/24 01:25:13;;;;;;;2.03;0.80;;;20.70;42.10;;;;;;2542091;53;20976;-70
2023/03/24 01:27:39;;;;;;;2.92;1.02;;;20.70;42.00;;;;;;2540865;54;20980;-68
2023/03/24 01:30:07;;;;;;;1.75;0.80;;;20.70;42.00;;;;;;2303961;55;20967;-71
2023/03/24 01:32:34;;;;;;;2.05;0.80;;;20.70;42.00;;;;;;2303017;55;20967;-69
2023/03/24 01:35:03;;;;;;;1.90;0.80;;;20.70;41.80;;;;;;2541548;54;21313;-69
2023/03/24 01:37:29;;;;;;;2.53;1.08;;;20.80;41.90;;;;;;2305341;54;22443;-71
2023/03/24 01:39:56;;;;;;;2.55;0.90;;;20.80;41.90;;;;;;2302915;55;21066;-68
2023/03/24 01:42:24;;;;;;;1.60;0.70;;;20.80;41.80;;;;;;2303289;55;21094;-71
2023/03/24 01:44:52;;;;;;;2.10;0.80;;;20.80;41.80;;;;;;2541589;54;20951;-69
2023/03/24 01:47:20;;;;;;;2.12;0.90;;;20.80;41.70;;;;;;2514760;54;20924;-69
2023/03/24 01:49:56;;;;;;;2.40;1.05;;;20.90;41.80;;;;;;2302991;55;20944;-68
2023/03/24 01:52:29;;;;;;;2.17;1.00;;;20.90;41.60;;;;;;2307098;54;21005;-69
2023/03/24 01:55:09;;;;;;;1.95;0.73;;;20.90;41.50;;;;;;2540602;54;20940;-68
2023/03/24 01:57:40;;;;;;;3.03;1.00;;;21.00;41.40;;;;;;2535788;53;21449;-69
2023/03/24 02:00:09;;;;;;;2.67;1.00;;;21.00;41.60;;;;;;2532323;54;21002;-70
2023/03/24 02:02:36;;;;;;;3.87;0.90;;;21.00;41.50;;;;;;2287750;55;20955;-69
2023/03/24 02:05:06;;;;;;;3.03;1.00;;;21.00;41.50;;;;;;2302787;55;21075;-69
2023/03/24 02:08:04;;;;;;;2.37;0.80;;;21.10;41.50;;;;;;2302463;54;21587;-70
2023/03/24 02:10:32;;;;;;;1.50;0.70;;;21.10;41.20;;;;;;2302472;55;21840;-67
2023/03/24 02:12:59;;;;;;;2.58;0.90;;;21.10;41.40;;;;;;2302674;55;20940;-67
2023/03/24 02:15:27;;;;;;;1.52;0.70;;;21.10;41.40;;;;;;2303244;55;20947;-69
2023/03/24 02:18:17;;;;;;;3.37;1.10;;;21.10;41.30;;;;;;2302797;54;20920;-69
2023/03/24 02:28:09;;;;;;;1.73;0.62;;;21.10;41.00;;;;;;2541386;54;21027;-68
2023/03/24 02:30:53;;;;;;;1.65;0.70;;;21.20;41.20;;;;;;2303028;55;21010;-69
2023/03/24 02:35:11;;;;;;;2.55;0.90;;;21.20;41.00;;;;;;2541404;54;21020;-68
2023/03/24 02:38:14;;;;;;;1.77;0.70;;;21.20;41.00;;;;;;2542032;54;20999;-69
2023/03/24 02:43:51;;;;;;;1.87;0.70;;;21.20;40.90;;;;;;2542151;54;20980;-69
2023/03/24 02:47:53;;;;;;;1.90;0.80;;;21.20;40.90;;;;;;2303101;55;20943;-69
2023/03/24 02:50:40;;;;;;;1.62;0.70;;;21.20;40.90;;;;;;2303048;55;22493;-69
2023/03/24 02:53:16;;;;;;;2.78;0.90;;;21.20;41.00;;;;;;2302987;55;20928;-70
2023/03/24 02:55:54;;;;;;;1.75;0.60;;;21.20;40.90;;;;;;2302689;55;20959;-70
2023/03/24 03:00:03;;;;;;;1.62;0.73;;;21.20;40.80;;;;;;2540348;54;21091;-68
2023/03/24 03:02:31;;;;;;;1.48;0.70;;;21.10;40.70;;;;;;2282701;55;21656;-71
2023/03/24 03:05:02;;;;;;;1.52;0.70;;;21.20;40.90;;;;;;2540327;53;21529;-70
2023/03/24 03:07:32;;;;;;;2.00;0.90;;;21.20;40.80;;;;;;2305200;55;21478;-68
2023/03/24 03:10:11;;;;;;;2.40;0.80;;;21.20;40.80;;;;;;2300531;54;21545;-69
2023/03/24 03:12:37;;;;;;;2.90;0.75;;;21.20;40.70;;;;;;2301976;55;21023;-68
2023/03/24 03:15:15;;;;;;;2.42;1.30;;;21.20;40.70;;;;;;2301464;54;21414;-68
2023/03/24 03:17:52;;;;;;;1.83;0.70;;;21.20;40.60;;;;;;2541103;54;21099;-69
2023/03/24 03:20:22;;;;;;;2.10;0.80;;;21.20;40.60;;;;;;2540066;54;20962;-68
2023/03/24 03:22:56;;;;;;;2.62;0.90;;;21.20;40.60;;;;;;2301583;55;20980;-69
2023/03/24 03:25:25;;;;;;;2.70;1.23;;;21.20;40.60;;;;;;2302002;55;21445;-68
2023/03/24 03:27:52;;;;;;;1.83;0.77;;;21.30;40.70;;;;;;2539928;54;21148;-68
2023/03/24 03:30:43;;;;;;;2.10;0.80;;;21.20;40.60;;;;;;2301854;55;21148;-70
2023/03/24 03:33:17;;;;;;;1.85;0.70;;;21.30;40.60;;;;;;2304866;54;21476;-68
2023/03/24 03:35:49;;;;;;;2.87;1.00;;;21.30;40.70;;;;;;2301649;55;21564;-69
2023/03/24 03:38:24;;;;;;;1.98;0.70;;;21.40;40.80;;;;;;2302267;55;20944;-69
2023/03/24 03:40:51;;;;;;;1.90;0.80;;;21.30;40.70;;;;;;2301315;55;20959;-69
2023/03/24 03:43:19;;;;;;;2.58;0.85;;;21.30;40.80;;;;;;2302417;55;20951;-69
2023/03/24 03:45:45;;;;;;;1.85;0.70;;;21.30;40.70;;;;;;2301740;55;21028;-68
2023/03/24 03:48:12;;;;;;;1.60;0.60;;;21.30;40.70;;;;;;2301758;55;21418;-69
2023/03/24 03:50:39;;;;;;;1.67;0.70;;;21.30;40.70;;;;;;2540771;54;21545;-66
2023/03/24 03:53:08;;;;;;;1.62;0.77;;;21.30;40.80;;;;;;2540130;53;21448;-66
2023/03/24 03:55:34;;;;;;;1.87;0.73;;;21.30;40.70;;;;;;2305290;55;21037;-66
2023/03/24 03:58:02;;;;;;;1.77;0.70;;;21.30;40.80;;;;;;2302448;54;20976;-66
2023/03/24 04:00:29;;;;;;;2.10;0.80;;;21.30;40.80;;;;;;2303681;55;21001;-67
2023/03/24 04:07:45;;;;;;;1.98;0.85;;;21.30;40.80;;;;;;2541798;54;20948;-67
2023/03/24 04:10:30;;;;;;;2.08;0.80;;;21.30;40.80;;;;;;2303325;55;22089;-68
2023/03/24 04:16:03;;;;;;;2.65;0.90;;;21.40;40.90;;;;;;2302858;55;21522;-69
2023/03/24 04:19:20;;;;;;;1.90;0.73;;;21.10;40.70;;;;;;2284506;55;22140;-69
2023/03/24 04:22:19;;;;;;;1.75;0.80;;;21.20;40.90;;;;;;2302901;55;20944;-69
2023/03/24 04:24:55;;;;;;;3.15;0.68;;;21.10;41.50;;;;;;2303595;55;21094;-69
2023/03/24 04:27:30;;;;;;;2.65;1.02;;;21.10;41.50;;;;;;2303386;54;22083;-69
2023/03/24 04:31:32;;;;;;;1.98;0.98;;;21.00;41.60;;;;;;2303008;55;20999;-69
2023/03/24 04:34:04;;;;;;;2.30;1.00;;;21.00;42.40;;;;;;2293304;55;20980;-68
2023/03/24 04:36:41;;;;;;;2.50;1.10;;;20.90;42.30;;;;;;2301310;55;21077;-69
2023/03/24 04:39:12;;;;;;;3.08;1.40;;;20.80;42.60;;;;;;2514447;54;22157;-67
2023/03/24 04:41:39;;;;;;;2.60;1.20;;;20.70;42.60;;;;;;2519308;54;20975;-69
2023/03/24 04:44:06;;;;;;;2.70;1.00;;;20.70;42.80;;;;;;2302937;55;21567;-68
2023/03/24 04:46:33;;;;;;;2.85;1.20;;;20.60;42.90;;;;;;2542629;54;21087;-69
2023/03/24 04:49:01;;;;;;;3.10;1.08;;;20.50;43.00;;;;;;2303803;55;20983;-68
2023/03/24 04:51:28;;;;;;;3.90;1.00;;;20.40;43.10;;;;;;2541047;53;21052;-68
2023/03/24 04:53:54;;;;;;;2.25;0.90;;;20.40;43.40;;;;;;2287432;55;21360;-69
2023/03/24 04:56:46;;;;;;;3.10;0.90;;;20.30;43.40;;;;;;2305963;55;20963;-68
2023/03/24 04:59:13;;;;;;;2.40;1.10;;;20.30;44.10;;;;;;2303096;55;21095;-68
2023/03/24 05:01:40;;;;;;;1.90;1.00;;;20.20;43.80;;;;;;2303538;54;22030;-68
2023/03/24 05:04:07;;;;;;;2.12;0.90;;;20.20;44.00;;;;;;2302897;55;21375;-69
2023/03/24 05:06:33;;;;;;;2.10;0.93;;;20.10;44.00;;;;;;2303677;55;21480;-69
2023/03/24 05:09:00;;;;;;;2.53;1.20;;;20.10;44.20;;;;;;2303232;55;20947;-68
2023/03/24 05:11:26;;;;;;;2.55;1.00;;;20.00;44.80;;;;;;2303560;55;21014;-68
2023/03/24 05:13:53;;;;;;;2.90;1.00;;;20.00;44.40;;;;;;2302947;55;20959;-68
2023/03/24 05:16:20;;;;;;;2.15;0.85;;;19.90;44.50;;;;;;2306221;54;21015;-68
2023/03/24 05:18:46;;;;;;;3.65;1.10;;;19.90;44.60;;;;;;2302922;55;21130;-67
2023/03/24 05:21:12;;;;;;;2.60;1.10;;;19.90;44.70;;;;;;2540723;54;20975;-68
2023/03/24 05:23:38;;;;;;;1.95;0.95;;;19.80;44.90;;;;;;2542237;54;20968;-68
2023/03/24 05:26:06;;;;;;;2.17;1.00;;;19.70;44.90;;;;;;2304382;55;21306;-69
2023/03/24 05:28:33;;;;;;;2.42;1.17;;;19.70;45.00;;;;;;2303742;55;20956;-67
2023/03/24 05:31:00;;;;;;;2.67;1.00;;;19.70;45.10;;;;;;2542188;53;22016;-68
2023/03/24 05:33:26;;;;;;;2.72;1.25;;;19.60;45.20;;;;;;2541848;54;20995;-67
2023/03/24 05:35:53;;;;;;;2.78;1.40;;;19.60;45.30;;;;;;2310164;55;21073;-68
2023/03/24 05:38:19;;;;;;;3.12;1.10;;;19.50;45.40;;;;;;2541670;53;21648;-68
2023/03/24 05:40:46;;;;;;;4.00;1.10;;;19.50;45.50;;;;;;2542241;54;20991;-67
2023/03/24 05:43:13;;;;;;;2.30;1.10;;;19.50;45.60;;;;;;2541231;54;20961;-68
2023/03/24 05:45:40;;;;;;;2.62;1.20;;;19.40;45.70;;;;;;2285180;55;20985;-68
2023/03/24 05:48:07;;;;;;;3.92;1.20;;;19.40;45.80;;;;;;2520800;53;20961;-69
2023/03/24 05:50:34;;;;;;;2.85;1.27;;;19.40;46.00;;;;;;2535447;54;21577;-69
2023/03/24 05:53:00;;;;;;;2.45;0.90;;;19.30;46.10;;;;;;2302591;54;20963;-67
2023/03/24 05:55:29;;;;;;;2.50;1.00;;;19.30;46.10;;;;;;2541882;54;21031;-67
2023/03/24 05:57:56;;;;;;;3.25;1.17;;;19.30;46.20;;;;;;2541282;54;21086;-70
2023/03/24 06:00:23;;;;;;;2.90;1.05;;;19.30;46.50;;;;;;2303114;55;20959;-69
2023/03/24 06:02:52;;;;;;;2.45;1.10;;;19.20;46.60;;;;;;2303098;55;21114;-68
2023/03/24 06:05:19;;;;;;;2.83;1.15;;;19.20;46.70;;;;;;2302829;54;20963;-67
2023/03/24 06:07:46;;;;;;;2.47;0.95;;;19.00;46.70;;;;;;2542224;54;21509;-67
2023/03/24 06:10:17;;;;;;;2.70;1.02;;;19.10;47.00;;;;;;2542394;53;20991;-65
2023/03/24 06:12:45;;;;;;;2.62;1.00;;;19.10;47.20;;;;;;2542916;54;22036;-69
2023/03/24 06:15:16;;;;;;;3.87;1.00;;;19.10;47.30;;;;;;2541954;54;20967;-68
2023/03/24 06:17:43;;;;;;;2.30;0.90;;;19.00;47.40;;;;;;2542046;54;20977;-68
2023/03/24 06:20:14;;;;;;;2.40;1.00;;;19.00;47.50;;;;;;2542019;54;20951;-68
2023/03/24 06:22:44;;;;;;;3.47;1.10;;;18.90;47.80;;;;;;2543546;54;20948;-68
2023/03/24 06:25:11;;;;;;;2.50;1.10;;;18.90;47.90;;;;;;2542732;54;21791;-68
2023/03/24 06:27:41;;;;;;;1.83;0.90;;;18.80;47.80;;;;;;2304134;55;20955;-67
2023/03/24 06:30:08;;;;;;;3.10;1.10;;;18.70;48.00;;;;;;2541936;54;21425;-66
2023/03/24 06:32:34;;;;;;;2.78;1.10;;;18.70;48.20;;;;;;2515862;54;20984;-67
2023/03/24 06:35:02;;;;;;;2.33;0.93;;;18.60;48.30;;;;;;2303541;55;21558;-68
2023/03/24 06:37:29;;;;;;;2.75;1.10;;;18.60;48.40;;;;;;2306999;55;20996;-67
2023/03/24 06:39:55;;;;;;;2.17;0.93;;;18.50;48.50;;;;;;2302828;54;20975;-67
2023/03/24 06:42:22;;;;;;;2.83;1.17;;;18.40;48.60;;;;;;2303621;55;20995;-68
2023/03/24 06:44:50;;;;;;;3.08;1.12;;;18.40;48.80;;;;;;2542778;54;20983;-67
2023/03/24 06:47:19;;;;;;;2.53;1.30;;;18.30;49.10;;;;;;2542896;54;20979;-67
2023/03/24 06:49:45;;;;;;;2.65;1.02;;;18.30;49.80;;;;;;2542807;54;20951;-68
2023/03/24 06:52:13;;;;;;;5.22;1.50;;;18.20;50.50;;;;;;2542586;54;21024;-70
2023/03/24 06:54:39;;;;;;;3.40;1.30;;;18.10;51.70;;;;;;2542750;53;20972;-68
2023/03/24 06:57:07;;;;;;;3.42;1.40;;;18.00;52.80;;;;;;2515772;54;21356;-69
2023/03/24 06:59:34;;;;;;;4.07;1.35;;;18.00;53.90;;;;;;2283582;55;21482;-67
2023/03/24 07:02:00;;;;;;;4.15;1.35;;;17.90;54.80;;;;;;2303212;55;20951;-70
2023/03/24 07:04:27;;;;;;;3.55;1.52;;;17.80;55.60;;;;;;2306588;55;20969;-68
2023/03/24 07:06:54;;;;;;;3.10;1.67;;;17.80;56.30;;;;;;2304234;55;21010;-68
2023/03/24 07:09:26;;;;;;;3.40;1.58;;;17.70;56.90;;;;;;2304338;55;21357;-70
2023/03/24 07:11:54;;;;;;;3.03;1.30;;;17.60;57.40;;;;;;2303687;55;20931;-68
2023/03/24 07:14:24;;;;;;;2.92;1.52;;;17.60;57.90;;;;;;2303706;55;20979;-69
2023/03/24 07:16:52;;;;;;;3.15;1.60;;;17.50;58.30;;;;;;2542932;54;20995;-69
2023/03/24 07:19:21;;;;;;;3.67;1.62;;;17.50;58.70;;;;;;2304046;55;20960;-68
2023/03/24 07:21:49;;;;;;;3.50;1.75;;;17.50;59.10;;;;;;2306558;54;20953;-69
2023/03/24 07:24:16;;;;;;;3.08;1.62;;;17.50;59.40;;;;;;2290900;54;21591;-68
2023/03/24 07:26:42;;;;;;;3.55;1.85;;;17.50;59.70;;;;;;2542959;54;20950;-68
2023/03/24 07:29:09;;;;;;;3.05;1.67;;;17.40;59.90;;;;;;2542867;54;20964;-68
2023/03/24 07:31:37;;;;;;;2.95;1.62;;;17.40;60.10;;;;;;2542768;54;21114;-67
2023/03/24 07:34:06;;;;;;;4.20;1.80;;;17.40;60.50;;;;;;2542104;54;21048;-68
2023/03/24 07:36:33;;;;;;;3.22;1.67;;;17.40;60.80;;;;;;2303930;55;20976;-67
2023/03/24 07:38:59;;;;;;;3.42;1.67;;;17.30;60.90;;;;;;2542608;54;20971;-68
2023/03/24 07:41:26;;;;;;;3.30;1.77;;;17.30;61.20;;;;;;2305703;54;21008;-69
2023/03/24 07:43:52;;;;;;;5.10;2.83;;;17.30;61.40;;;;;;2301194;55;21452;-68
2023/03/24 07:46:19;;;;;;;5.75;2.95;;;17.30;61.60;;;;;;2303936;55;21023;-67
2023/03/24 07:48:46;;;;;;;7.03;3.55;;;17.30;61.80;;;;;;2303840;54;20975;-67
2023/03/24 07:51:12;;;;;;;7.07;4.80;;;17.30;62.00;;;;;;2302512;55;21583;-68
2023/03/24 07:53:39;;;;;;;9.45;6.12;;;17.30;62.20;;;;;;2542575;54;21119;-69
2023/03/24 07:56:05;;;;;;;9.25;5.82;;;17.30;62.30;;;;;;2541884;54;20935;-70
2023/03/24 07:58:32;;;;;;;6.00;3.87;;;17.30;62.40;;;;;;2302781;54;21034;-68
2023/03/24 08:00:59;;;;;;;6.03;3.78;;;17.30;62.60;;;;;;2303541;55;20984;-67
2023/03/24 08:03:26;;;;;;;5.28;3.22;;;17.30;62.80;;;;;;2303236;55;21027;-68
2023/03/24 08:05:56;;;;;;;4.85;2.55;;;17.30;62.90;;;;;;2303269;55;21150;-69
2023/03/24 08:08:23;;;;;;;3.55;2.08;;;17.30;63.00;;;;;;2303133;54;21513;-70
2023/03/24 08:10:49;;;;;;;3.25;1.85;;;17.30;63.10;;;;;;2306776;55;21008;-68
2023/03/24 08:13:19;;;;;;;2.90;1.70;;;17.30;63.30;;;;;;2302272;55;21015;-68
2023/03/24 08:15:45;;;;;;;3.10;1.73;;;17.20;63.30;;;;;;2542776;54;20935;-67
2023/03/24 08:18:13;;;;;;;3.20;2.05;;;17.30;63.50;;;;;;2540862;53;21017;-67
2023/03/24 08:20:39;;;;;;;3.30;1.30;;;17.30;63.60;;;;;;2303554;55;21091;-67
2023/03/24 08:23:07;;;;;;;3.08;1.48;;;17.30;63.70;;;;;;2540634;54;21461;-68
2023/03/24 08:25:35;;;;;;;3.05;1.62;;;17.30;63.80;;;;;;2542252;54;21079;-68
2023/03/24 08:28:01;;;;;;;3.47;1.75;;;17.30;64.00;;;;;;2541571;54;21031;-68
2023/03/24 08:30:28;;;;;;;2.78;1.70;;;17.30;64.00;;;;;;2541236;54;21067;-68
2023/03/24 08:32:56;;;;;;;3.62;1.92;;;17.30;64.10;;;;;;2541895;53;21619;-69
2023/03/24 08:35:24;;;;;;;3.12;1.70;;;17.30;64.20;;;;;;2302940;55;20944;-70
2023/03/24 08:37:52;;;;;;;3.80;1.80;;;17.40;64.40;;;;;;2542717;54;21050;-69
2023/03/24 08:40:22;;;;;;;3.45;1.75;;;17.40;64.50;;;;;;2541326;54;20979;-68
2023/03/24 08:42:58;;;;;;;3.60;1.92;;;17.40;64.60;;;;;;2541729;54;21003;-69
2023/03/24 08:45:29;;;;;;;3.12;1.70;;;17.40;64.60;;;;;;2303073;55;21471;-68
2023/03/24 08:47:57;;;;;;;4.50;1.83;;;17.40;64.80;;;;;;2542096;54;20980;-70
2023/03/24 08:50:26;;;;;;;4.12;1.92;;;17.40;64.90;;;;;;2541820;54;21925;-67
2023/03/24 08:52:53;;;;;;;3.15;1.70;;;17.50;65.00;;;;;;2303289;55;21360;-68
2023/03/24 08:55:21;;;;;;;4.78;2.03;;;17.50;65.00;;;;;;2541661;54;21537;-69
2023/03/24 08:57:49;;;;;;;5.10;2.25;;;17.50;65.00;;;;;;2302890;55;20971;-68
2023/03/24 09:00:17;;;;;;;5.82;2.70;;;17.60;65.20;;;;;;2540819;54;21011;-68
2023/03/24 09:02:44;;;;;;;4.30;2.37;;;17.60;65.10;;;;;;2303848;55;21341;-68
2023/03/24 09:05:11;;;;;;;6.65;3.87;;;17.60;65.20;;;;;;2303338;55;21011;-68
2023/03/24 09:07:38;;;;;;;5.50;2.78;;;17.70;66.00;;;;;;2303652;55;21119;-68
2023/03/24 09:10:10;;;;;;;7.60;3.50;;;17.70;65.30;;;;;;2302560;55;20975;-68
2023/03/24 09:12:36;;;;;;;5.55;2.90;;;17.70;65.30;;;;;;2303351;55;21003;-69
2023/03/24 09:15:04;;;;;;;5.70;2.47;;;17.70;65.30;;;;;;2302828;55;22119;-67
2023/03/24 09:17:31;;;;;;;4.00;2.40;;;17.80;65.20;;;;;;2542071;54;20991;-69
2023/03/24 09:19:57;;;;;;;3.97;2.05;;;17.80;65.00;;;;;;2303081;55;20987;-69
2023/03/24 09:22:27;;;;;;;4.75;2.10;;;17.80;64.90;;;;;;2302879;55;21546;-68
2023/03/24 09:24:54;;;;;;;3.72;1.95;;;17.80;64.80;;;;;;2541679;54;20975;-69
2023/03/24 09:27:22;;;;;;;3.22;1.65;;;17.80;64.70;;;;;;2302961;55;21968;-69
2023/03/24 09:29:48;;;;;;;4.35;1.60;;;17.90;64.90;;;;;;2305752;54;21036;-67
2023/03/24 09:32:15;;;;;;;3.65;1.65;;;17.90;64.90;;;;;;2302820;55;20947;-68
2023/03/24 09:34:42;;;;;;;4.60;1.98;;;17.90;65.00;;;;;;2542557;54;21039;-68
2023/03/24 09:37:08;;;;;;;3.65;1.55;;;17.90;64.80;;;;;;2541412;54;20932;-68
2023/03/24 09:39:35;;;;;;;3.65;1.60;;;17.90;64.90;;;;;;2541856;53;20993;-68
2023/03/24 09:42:05;;;;;;;4.50;1.50;;;17.90;64.80;;;;;;2304223;55;20951;-68
2023/03/24 09:44:39;;;;;;;3.75;1.50;;;17.90;64.70;;;;;;2305050;55;20959;-67
2023/03/24 09:47:26;;;;;;;3.03;1.52;;;18.00;64.60;;;;;;2543814;54;20936;-69
2023/03/24 09:49:52;;;;;;;2.90;1.35;;;18.00;64.40;;;;;;2307441;54;21092;-68
2023/03/24 09:52:21;;;;;;;3.33;1.55;;;18.00;64.90;;;;;;2303745;55;21071;-68
2023/03/24 09:54:53;;;;;;;2.83;1.42;;;18.10;64.90;;;;;;2543752;54;21905;-68
2023/03/24 09:57:30;;;;;;;3.05;1.70;;;17.90;64.70;;;;;;2542272;54;20955;-68
2023/03/24 09:59:57;;;;;;;2.85;1.65;;;18.10;64.80;;;;;;2304132;55;21071;-68
2023/03/24 10:02:26;;;;;;;4.15;1.40;;;18.10;64.90;;;;;;2303530;55;20967;-68
2023/03/24 10:04:53;;;;;;;2.67;1.45;;;18.10;64.90;;;;;;2303949;55;20971;-67
2023/03/24 10:07:36;;;;;;;4.57;1.80;;;18.10;64.90;;;;;;2303163;55;21063;-68
2023/03/24 10:10:02;;;;;;;2.87;1.30;;;18.20;64.40;;;;;;2542878;54;20992;-68
2023/03/24 10:12:39;;;;;;;3.47;1.67;;;18.10;64.70;;;;;;2303834;55;21075;-68
2023/03/24 10:15:31;;;;;;;3.45;1.90;;;18.20;64.30;;;;;;2304481;55;21000;-67
2023/03/24 10:18:28;;;;;;;2.67;1.42;;;18.20;63.80;;;;;;2541793;53;20993;-67
2023/03/24 10:21:18;;;;;;;2.78;1.30;;;18.20;63.40;;;;;;2307220;54;20976;-70
2023/03/24 10:25:40;;;;;;;3.65;1.77;;;18.20;63.60;;;;;;2536277;54;21016;-70
2023/03/24 10:28:28;;;;;;;2.65;1.30;;;18.20;63.00;;;;;;2306392;54;20977;-67
2023/03/24 10:30:56;;;;;;;2.78;1.25;;;18.20;63.90;;;;;;2303929;55;21015;-69
2023/03/24 10:33:22;;;;;;;2.60;1.48;;;18.30;64.50;;;;;;2541458;53;21005;-68
2023/03/24 10:36:16;;;;;;;2.62;1.20;;;18.30;64.60;;;;;;2303326;55;21055;-68
2023/03/24 10:38:43;;;;;;;2.85;1.40;;;18.20;63.90;;;;;;2542633;54;20963;-68
2023/03/24 10:41:20;;;;;;;3.58;1.42;;;18.20;64.40;;;;;;2542623;54;20908;-67
2023/03/24 10:43:47;;;;;;;4.18;1.30;;;18.30;64.20;;;;;;2304468;55;21067;-67
2023/03/24 10:46:17;;;;;;;2.47;1.20;;;18.20;64.70;;;;;;2542354;54;20952;-67
2023/03/24 10:48:46;;;;;;;2.92;1.30;;;18.20;64.70;;;;;;2543157;54;20955;-67
2023/03/24 10:51:33;;;;;;;2.12;0.90;;;18.30;64.90;;;;;;2542257;54;21721;-66
2023/03/24 10:54:21;;;;;;;1.80;0.88;;;18.30;63.80;;;;;;2307713;54;21028;-67
2023/03/24 10:57:03;;;;;;;2.40;1.00;;;18.40;64.40;;;;;;2303464;54;20999;-67
2023/03/24 10:59:48;;;;;;;2.20;0.90;;;18.40;64.10;;;;;;2303920;55;21438;-67
2023/03/24 11:02:39;;;;;;;2.00;0.93;;;18.40;64.10;;;;;;2303846;55;20916;-66
2023/03/24 11:05:19;;;;;;;4.50;1.00;;;18.50;64.40;;;;;;2542920;54;21973;-67
2023/03/24 11:07:47;;;;;;;1.52;0.73;;;18.50;64.80;;;;;;2542913;54;22160;-67
2023/03/24 11:10:15;;;;;;;1.50;0.60;;;18.40;64.30;;;;;;2542299;54;21018;-66
2023/03/24 11:12:43;;;;;;;1.75;0.75;;;18.50;64.30;;;;;;2542742;54;22069;-68
2023/03/24 11:15:20;;;;;;;1.92;0.90;;;18.50;64.30;;;;;;2542174;54;20960;-66
2023/03/24 11:17:55;;;;;;;1.80;0.70;;;18.50;63.50;;;;;;2304397;54;20968;-67
2023/03/24 11:21:07;;;;;;;2.67;1.00;;;18.40;63.90;;;;;;2542277;54;21921;-66
2023/03/24 11:23:43;;;;;;;3.40;0.90;;;18.50;62.20;;;;;;2302886;55;22247;-67
2023/03/24 11:26:18;;;;;;;1.70;0.70;;;18.40;63.20;;;;;;2542832;54;20955;-67
2023/03/24 11:28:52;;;;;;;2.40;0.90;;;18.40;63.40;;;;;;2542175;53;20989;-68
2023/03/24 11:31:29;;;;;;;1.95;0.70;;;18.40;63.70;;;;;;2303275;55;21818;-67
2023/03/24 11:34:00;;;;;;;3.10;1.00;;;18.40;63.50;;;;;;2542467;54;20944;-66
2023/03/24 11:37:57;;;;;;;2.00;0.73;;;18.30;63.30;;;;;;2303088;55;20924;-66
2023/03/24 11:40:24;;;;;;;3.22;1.10;;;18.30;62.40;;;;;;2541675;54;21989;-67
2023/03/24 11:43:00;;;;;;;1.73;0.70;;;18.20;63.50;;;;;;2303870;55;21916;-67
2023/03/24 11:46:30;;;;;;;4.47;0.90;;;18.20;63.00;;;;;;2541101;54;20948;-68
2023/03/24 11:48:57;;;;;;;1.83;0.62;;;18.20;62.90;;;;;;2542285;54;20956;-70
2023/03/24 11:51:35;;;;;;;1.58;0.77;;;18.10;63.60;;;;;;2303301;55;20972;-68
2023/03/24 11:54:03;;;;;;;2.67;0.90;;;18.10;63.50;;;;;;2306721;54;20949;-66
2023/03/24 11:56:41;;;;;;;2.75;1.10;;;18.10;63.60;;;;;;2306030;55;21148;-70
2023/03/24 11:59:36;;;;;;;2.28;0.70;;;18.10;63.60;;;;;;2302878;55;21021;-67
2023/03/24 12:05:19;;;;;;;1.90;0.70;;;18.00;63.20;;;;;;2542274;54;20984;-67
2023/03/24 12:08:00;;;;;;;1.02;0.50;;;18.00;62.60;;;;;;2305735;55;20979;-68
2023/03/24 12:10:39;;;;;;;0.82;0.40;;;18.00;63.70;;;;;;2541334;54;20952;-68
2023/03/24 12:13:11;;;;;;;0.90;0.47;;;18.00;64.00;;;;;;2542869;54;20968;-68
2023/03/24 12:17:21;;;;;;;1.52;0.60;;;18.00;64.00;;;;;;2303294;55;20951;-67
2023/03/24 12:22:44;;;;;;;0.70;0.43;;;18.10;63.80;;;;;;2303070;55;21023;-70
2023/03/24 12:25:40;;;;;;;1.15;0.60;;;18.10;63.30;;;;;;2542019;54;21294;-69
2023/03/24 12:28:23;;;;;;;1.90;0.70;;;18.10;63.50;;;;;;2540792;53;21347;-69
2023/03/24 12:31:23;;;;;;;1.98;0.75;;;18.10;63.20;;;;;;2306489;54;21424;-71
2023/03/24 12:34:03;;;;;;;1.77;0.70;;;18.00;63.10;;;;;;2305434;54;21106;-71
2023/03/24 12:36:45;;;;;;;1.55;0.60;;;18.00;63.70;;;;;;2540583;53;20936;-69
2023/03/24 12:39:16;;;;;;;1.87;0.60;;;18.00;63.10;;;;;;2541303;54;21025;-71
2023/03/24 12:41:57;;;;;;;1.85;0.75;;;18.00;63.80;;;;;;2303065;55;20931;-71
2023/03/24 12:54:44;;;;;;;1.90;0.60;;;18.00;63.60;;;;;;2540114;54;21582;-69
2023/03/24 12:57:16;;;;;;;2.30;0.70;;;18.00;63.00;;;;;;2543421;54;21133;-69
2023/03/24 12:59:57;;;;;;;1.37;0.60;;;18.00;64.30;;;;;;2540553;54;21012;-69
2023/03/24 13:02:34;;;;;;;1.42;0.60;;;17.90;64.00;;;;;;2540140;53;21039;-68
2023/03/24 13:05:07;;;;;;;1.85;0.60;;;17.90;64.30;;;;;;2541028;53;20961;-69
2023/03/24 13:07:42;;;;;;;1.75;0.65;;;17.90;64.50;;;;;;2283910;55;20993;-69
2023/03/24 13:10:19;;;;;;;2.30;0.70;;;17.90;64.70;;;;;;2544013;53;21012;-68
2023/03/24 13:13:02;;;;;;;1.83;0.80;;;17.80;64.10;;;;;;2309545;55;21487;-70
2023/03/24 13:15:33;;;;;;;1.92;0.80;;;17.80;64.10;;;;;;2543583;53;21076;-70
2023/03/24 13:18:17;;;;;;;2.37;0.80;;;17.80;64.50;;;;;;2544270;53;21949;-69
2023/03/24 13:20:46;;;;;;;1.60;0.70;;;17.80;64.40;;;;;;2541181;54;20967;-70
2023/03/24 13:24:15;;;;;;;1.25;0.57;;;17.80;65.50;;;;;;2543369;53;20964;-68
2023/03/24 13:33:30;;;;;;;1.62;0.60;;;17.70;63.70;;;;;;2542248;53;20979;-69
2023/03/24 13:36:17;;;;;;;1.73;0.70;;;17.70;63.40;;;;;;2541683;54;20980;-67
2023/03/24 13:38:54;;;;;;;1.33;0.60;;;17.70;64.60;;;;;;2303065;55;20983;-69
2023/03/24 13:41:23;;;;;;;1.65;0.77;;;17.70;64.50;;;;;;2302801;55;21059;-68
2023/03/24 13:43:56;;;;;;;1.42;0.50;;;17.70;64.80;;;;;;2541999;54;20968;-69
2023/03/24 13:46:24;;;;;;;1.48;0.60;;;17.60;65.00;;;;;;2541745;54;21044;-67
2023/03/24 13:48:56;;;;;;;1.73;0.60;;;17.60;65.10;;;;;;2542136;54;20963;-67
2023/03/24 13:51:30;;;;;;;2.33;0.80;;;17.60;65.00;;;;;;2542142;54;21037;-66
2023/03/24 13:54:18;;;;;;;2.70;0.90;;;17.60;64.90;;;;;;2302716;54;20995;-69
2023/03/24 13:57:17;;;;;;;2.35;0.90;;;17.60;65.10;;;;;;2542345;54;20963;-69
2023/03/24 14:00:19;;;;;;;2.05;0.70;;;17.60;64.50;;;;;;2541852;54;21067;-69
2023/03/24 14:03:35;;;;;;;1.95;0.80;;;17.60;64.50;;;;;;2304208;54;20999;-69
2023/03/24 14:06:07;;;;;;;2.35;0.68;;;17.50;64.90;;;;;;2542903;54;21047;-68